Time;durP1;ratioP1;P1;durP2;ratioP2;P2;SDS_P1;SDS_P2;PMS_P1;PMS_P2;Temp;Humidity;BMP_temperature;BMP_pressure;BME280_temperature;BME280_humidity;BME280_pressure;Samples;Min_cycle;Max_cycle;Signal;HPM_P1;HPM_P2
2022/03/16 00:00:18;;;;;;;;;;;5.70;64.10;;;;;;5047759;28;81660;-47
2022/03/16 00:05:46;;;;;;;;;;;5.70;64.80;;;;;;5047450;28;81739;-47
2022/03/16 00:11:15;;;;;;;;;;;5.70;64.20;;;;;;5047436;28;81753;-47
2022/03/16 00:16:43;;;;;;;;;;;5.60;64.20;;;;;;5049993;28;81851;-48
2022/03/16 00:22:12;;;;;;;;;;;5.60;64.30;;;;;;5047624;28;80943;-49
2022/03/16 00:27:40;;;;;;;;;;;5.60;64.30;;;;;;5047085;28;82010;-48
2022/03/16 00:33:11;;;;;;;;;;;5.60;64.30;;;;;;5047122;28;82352;-48
2022/03/16 00:38:39;;;;;;;;;;;5.60;64.30;;;;;;5047124;28;81695;-49
2022/03/16 00:44:08;;;;;;;;;;;5.60;64.40;;;;;;5047134;28;81750;-48
2022/03/16 00:49:36;;;;;;;;;;;5.60;64.40;;;;;;5047462;28;81136;-47
2022/03/16 00:55:05;;;;;;;;;;;5.60;64.40;;;;;;5046980;28;81684;-47
2022/03/16 01:00:34;;;;;;;;;;;5.50;64.40;;;;;;5047636;28;82457;-47
2022/03/16 01:06:02;;;;;;;;;;;5.50;64.50;;;;;;5049225;28;81839;-47
2022/03/16 01:11:30;;;;;;;;;;;5.50;64.50;;;;;;5046533;28;81871;-47
2022/03/16 01:17:00;;;;;;;;;;;5.50;64.60;;;;;;5047251;28;81314;-49
2022/03/16 01:22:28;;;;;;;;;;;5.50;64.60;;;;;;5046687;28;81653;-47
2022/03/16 01:27:57;;;;;;;;;;;5.50;64.60;;;;;;5049128;28;81877;-49
2022/03/16 01:33:25;;;;;;;;;;;5.50;64.60;;;;;;5046255;28;81675;-48
2022/03/16 01:38:54;;;;;;;;;;;5.40;64.70;;;;;;5049955;28;81688;-47
2022/03/16 01:44:41;;;;;;;;;;;5.40;64.60;;;;;;5050287;28;80963;-48
2022/03/16 01:50:10;;;;;;;;;;;5.40;64.70;;;;;;5049563;28;81764;-49
2022/03/16 01:55:39;;;;;;;;;;;5.40;64.70;;;;;;5049448;28;81776;-47
2022/03/16 02:01:08;;;;;;;;;;;5.40;64.70;;;;;;5049675;28;81761;-47
2022/03/16 02:06:36;;;;;;;;;;;5.40;64.70;;;;;;5049448;28;81692;-47
2022/03/16 02:12:05;;;;;;;;;;;5.40;64.80;;;;;;5049532;28;81225;-47
2022/03/16 02:17:33;;;;;;;;;;;5.40;64.80;;;;;;5052068;28;81682;-47
2022/03/16 02:23:02;;;;;;;;;;;5.30;64.70;;;;;;5049180;28;82327;-47
2022/03/16 02:28:31;;;;;;;;;;;5.40;64.80;;;;;;5049230;28;81685;-48
2022/03/16 02:34:00;;;;;;;;;;;5.30;64.80;;;;;;5048849;28;82156;-47
2022/03/16 02:39:28;;;;;;;;;;;5.30;64.90;;;;;;5050180;28;81391;-48
2022/03/16 02:44:57;;;;;;;;;;;5.30;64.80;;;;;;5048727;27;81682;-47
2022/03/16 02:50:26;;;;;;;;;;;5.30;64.80;;;;;;5048847;28;81725;-47
2022/03/16 02:55:54;;;;;;;;;;;5.30;64.80;;;;;;5048482;28;81916;-47
2022/03/16 03:01:23;;;;;;;;;;;5.30;64.80;;;;;;5048681;28;81745;-48
2022/03/16 03:06:52;;;;;;;;;;;5.20;64.80;;;;;;5051686;28;80964;-48
2022/03/16 03:12:20;;;;;;;;;;;5.20;64.80;;;;;;5048423;28;81713;-47
2022/03/16 03:17:48;;;;;;;;;;;5.20;64.80;;;;;;5046238;28;81984;-47
2022/03/16 03:23:17;;;;;;;;;;;5.20;64.80;;;;;;5048349;28;81680;-48
2022/03/16 03:28:45;;;;;;;;;;;5.20;64.80;;;;;;5051015;28;81787;-48
2022/03/16 03:34:14;;;;;;;;;;;5.20;64.80;;;;;;5048576;28;80999;-49
2022/03/16 03:39:42;;;;;;;;;;;5.10;64.80;;;;;;5047801;28;81845;-47
2022/03/16 03:45:11;;;;;;;;;;;5.10;64.80;;;;;;5047881;28;82283;-47
2022/03/16 03:50:39;;;;;;;;;;;5.10;64.80;;;;;;5047846;28;81957;-47
2022/03/16 03:56:08;;;;;;;;;;;5.10;64.80;;;;;;5047849;28;81661;-47
2022/03/16 04:01:36;;;;;;;;;;;5.10;64.80;;;;;;5047991;28;81252;-47
2022/03/16 04:07:05;;;;;;;;;;;5.10;64.80;;;;;;5048954;28;81722;-47
2022/03/16 07:43:55;;;;;;;;;;;4.80;65.60;;;;;;5031000;27;81915;-49
2022/03/16 07:46:21;;;;;;;;;;;4.80;65.50;;;;;;5068380;27;81068;-48
2022/03/16 07:48:46;;;;;;;;;;;4.80;65.60;;;;;;5070573;27;82007;-47
2022/03/16 07:51:12;;;;;;;;;;;4.80;65.50;;;;;;5070833;27;81778;-47
2022/03/16 07:53:38;;;;;;;;;;;4.70;65.40;;;;;;5069639;27;84374;-50
2022/03/16 07:56:04;;;;;;;;;;;4.80;65.50;;;;;;5070517;27;81867;-48
2022/03/16 07:58:31;;;;;;;;;;;4.80;65.40;;;;;;5070441;27;82910;-49
2022/03/16 08:00:57;;;;;;;;;;;4.80;65.40;;;;;;5070219;27;83494;-48
2022/03/16 08:03:22;;;;;;;;;;;4.80;65.30;;;;;;5073182;27;81806;-47
2022/03/16 08:05:48;;;;;;;;;;;4.80;65.20;;;;;;5070091;27;82966;-48
2022/03/16 08:08:14;;;;;;;;;;;4.80;65.30;;;;;;5070599;27;82102;-47
2022/03/16 08:10:40;;;;;;;;;;;4.80;65.20;;;;;;5070707;27;83067;-48
2022/03/16 08:13:05;;;;;;;;;;;4.80;65.30;;;;;;5069917;27;83465;-47
2022/03/16 08:15:32;;;;;;;;;;;4.80;65.30;;;;;;5069375;27;81941;-48
2022/03/16 08:17:57;;;;;;;;;;;4.80;65.30;;;;;;5069606;27;82918;-48
2022/03/16 08:20:23;;;;;;;;;;;4.90;65.30;;;;;;5070161;27;82307;-47
2022/03/16 08:22:54;;;;;;;;;;;4.80;65.40;;;;;;5072856;27;81749;-47
2022/03/16 08:25:19;;;;;;;;;;;4.80;65.50;;;;;;5069803;27;82711;-49
2022/03/16 08:27:45;;;;;;;;;;;4.80;65.40;;;;;;5069423;27;81841;-47
2022/03/16 08:30:11;;;;;;;;;;;4.80;65.50;;;;;;5069940;27;82047;-47
2022/03/16 08:32:37;;;;;;;;;;;4.80;65.60;;;;;;5069708;27;83437;-47
2022/03/16 08:35:03;;;;;;;;;;;4.80;65.50;;;;;;5070439;27;81094;-47
2022/03/16 08:37:29;;;;;;;;;;;4.90;65.50;;;;;;5069957;27;81876;-47
2022/03/16 08:39:54;;;;;;;;;;;4.90;65.50;;;;;;5070039;27;82766;-47
2022/03/16 08:42:21;;;;;;;;;;;4.90;65.40;;;;;;5069192;27;82700;-48
2022/03/16 08:44:46;;;;;;;;;;;4.90;65.40;;;;;;5074837;27;84067;-47
2022/03/16 08:47:16;;;;;;;;;;;4.90;65.40;;;;;;5073468;27;81894;-49
2022/03/16 08:49:43;;;;;;;;;;;4.90;65.40;;;;;;5073265;27;82893;-48
2022/03/16 08:52:10;;;;;;;;;;;4.90;65.40;;;;;;5073098;27;82693;-47
2022/03/16 08:54:36;;;;;;;;;;;4.90;65.40;;;;;;5073154;27;81816;-47
2022/03/16 08:57:02;;;;;;;;;;;5.00;65.30;;;;;;5073603;27;81940;-47
2022/03/16 08:59:28;;;;;;;;;;;4.90;65.40;;;;;;5073618;27;82624;-47
2022/03/16 09:01:53;;;;;;;;;;;5.00;65.30;;;;;;5073473;27;81806;-47
2022/03/16 09:04:21;;;;;;;;;;;4.90;65.10;;;;;;5073119;27;82930;-47
2022/03/16 09:06:48;;;;;;;;;;;4.90;65.10;;;;;;5075069;27;83659;-47
2022/03/16 09:09:14;;;;;;;;;;;4.90;65.20;;;;;;5073134;27;83862;-47
2022/03/16 09:11:40;;;;;;;;;;;5.00;65.30;;;;;;5073179;27;82311;-47
2022/03/16 09:14:06;;;;;;;;;;;5.00;65.30;;;;;;5072881;27;82026;-47
2022/03/16 09:16:31;;;;;;;;;;;4.90;65.10;;;;;;5072946;27;82804;-47
2022/03/16 09:18:57;;;;;;;;;;;4.90;65.10;;;;;;5072792;27;82655;-47
2022/03/16 09:21:25;;;;;;;;;;;4.90;65.50;;;;;;5072883;27;82076;-47
2022/03/16 09:23:53;;;;;;;;;;;4.90;65.50;;;;;;5073307;27;82052;-47
2022/03/16 09:26:23;;;;;;;;;;;5.00;65.60;;;;;;5072525;27;83505;-47
2022/03/16 09:28:49;;;;;;;;;;;5.00;65.60;;;;;;5075517;27;82147;-47
2022/03/16 09:31:15;;;;;;;;;;;5.00;65.70;;;;;;5071846;27;83430;-47
2022/03/16 09:33:41;;;;;;;;;;;5.00;65.70;;;;;;5072600;27;81809;-47
2022/03/16 09:36:09;;;;;;;;;;;5.00;65.60;;;;;;5072902;27;82085;-47
2022/03/16 09:38:35;;;;;;;;;;;5.00;65.40;;;;;;5072504;27;82531;-47
2022/03/16 09:41:02;;;;;;;;;;;5.00;65.80;;;;;;5072574;27;82166;-48
2022/03/16 09:43:30;;;;;;;;;;;5.00;65.90;;;;;;5072906;27;82936;-48
2022/03/16 09:45:57;;;;;;;;;;;5.10;65.70;;;;;;5072057;27;83832;-48
2022/03/16 09:48:25;;;;;;;;;;;5.10;65.90;;;;;;5073141;27;81296;-48
2022/03/16 09:50:52;;;;;;;;;;;5.10;65.90;;;;;;5075172;27;82155;-48
2022/03/16 09:53:19;;;;;;;;;;;5.10;65.90;;;;;;5072390;27;81847;-49
2022/03/16 09:55:45;;;;;;;;;;;5.10;66.00;;;;;;5071022;27;82913;-47
2022/03/16 09:58:11;;;;;;;;;;;5.10;65.50;;;;;;5072200;27;83389;-47
2022/03/16 10:00:38;;;;;;;;;;;5.10;65.90;;;;;;5072256;27;82095;-47
2022/03/16 10:03:04;;;;;;;;;;;5.10;66.10;;;;;;5072196;27;81796;-50
2022/03/16 10:05:30;;;;;;;;;;;5.10;66.20;;;;;;5071953;27;83442;-48
2022/03/16 10:07:59;;;;;;;;;;;5.10;66.00;;;;;;5072181;27;82079;-47
2022/03/16 10:13:22;;;;;;;;;;;5.10;66.20;;;;;;5075323;27;81295;-48
2022/03/16 10:15:52;;;;;;;;;;;5.10;66.20;;;;;;5072013;27;82294;-50
2022/03/16 10:18:22;;;;;;;;;;;5.10;66.20;;;;;;5071827;27;82550;-47
2022/03/16 10:20:49;;;;;;;;;;;5.10;66.30;;;;;;5071231;27;82723;-47
2022/03/16 10:23:20;;;;;;;;;;;5.10;66.30;;;;;;5071938;27;83142;-47
2022/03/16 10:25:46;;;;;;;;;;;5.10;66.20;;;;;;5071658;27;83344;-47
2022/03/16 10:28:13;;;;;;;;;;;5.10;66.20;;;;;;5072137;27;82096;-46
2022/03/16 10:31:00;;;;;;;;;;;5.10;66.30;;;;;;5071823;27;82837;-47
2022/03/16 10:33:36;;;;;;;;;;;5.10;66.20;;;;;;5074168;27;82474;-47
2022/03/16 10:36:09;;;;;;;;;;;5.10;66.30;;;;;;5071805;27;82805;-47
2022/03/16 10:38:39;;;;;;;;;;;5.20;66.50;;;;;;5072107;27;82618;-47
2022/03/16 10:41:14;;;;;;;;;;;5.10;66.30;;;;;;5071748;27;82076;-47
2022/03/16 10:46:40;;;;;;;;;;;5.20;66.30;;;;;;5047346;28;83044;-50
2022/03/16 10:49:06;;;;;;;;;;;5.20;66.40;;;;;;5051138;28;81829;-48
2022/03/16 10:51:33;;;;;;;;;;;5.20;66.60;;;;;;5051129;28;82098;-47
2022/03/16 10:54:00;;;;;;;;;;;5.20;66.40;;;;;;5050783;28;83457;-49
2022/03/16 10:56:30;;;;;;;;;;;5.20;66.50;;;;;;5053912;28;81800;-48
2022/03/16 10:58:57;;;;;;;;;;;5.20;66.60;;;;;;5050837;28;83230;-49
2022/03/16 11:01:23;;;;;;;;;;;5.30;66.70;;;;;;5050772;28;81870;-47
2022/03/16 11:03:50;;;;;;;;;;;5.30;66.80;;;;;;5051487;28;83138;-48
2022/03/16 11:06:18;;;;;;;;;;;5.20;66.90;;;;;;5050813;27;83581;-48
2022/03/16 11:08:44;;;;;;;;;;;5.30;66.90;;;;;;5050724;28;81862;-47
2022/03/16 11:13:56;;;;;;;;;;;5.30;66.80;;;;;;5047353;28;82117;-47
2022/03/16 11:16:24;;;;;;;;;;;5.30;67.00;;;;;;5051047;28;81882;-47
2022/03/16 11:18:51;;;;;;;;;;;5.30;67.00;;;;;;5053248;28;82806;-47
2022/03/16 11:21:20;;;;;;;;;;;5.30;67.10;;;;;;5050625;28;81812;-47
2022/03/16 11:26:37;;;;;;;;;;;5.40;67.20;;;;;;5046952;28;87019;-47
2022/03/16 11:29:24;;;;;;;;;;;5.40;67.30;;;;;;5047754;28;86111;-47
2022/03/16 11:31:49;;;;;;;;;;;5.40;67.40;;;;;;5047381;28;86841;-48
2022/03/16 11:34:24;;;;;;;;;;;5.40;67.50;;;;;;5046595;28;88816;-48
2022/03/16 11:36:59;;;;;;;;;;;5.40;67.60;;;;;;5046388;28;87794;-50
2022/03/16 11:39:25;;;;;;;;;;;5.40;67.60;;;;;;5047014;28;89021;-47
2022/03/16 11:41:52;;;;;;;;;;;5.50;67.60;;;;;;5049815;28;87455;-47
2022/03/16 11:44:26;;;;;;;;;;;5.50;68.20;;;;;;5049921;27;86815;-48
2022/03/16 11:46:53;;;;;;;;;;;5.50;68.30;;;;;;5066811;27;88394;-48
2022/03/16 11:49:30;;;;;;;;;;;5.50;67.70;;;;;;5067270;27;86853;-47
2022/03/16 11:52:02;;;;;;;;;;;5.50;67.70;;;;;;5067509;27;87011;-47
2022/03/16 11:54:48;;;;;;;;;;;5.50;67.70;;;;;;5067219;27;87026;-49
2022/03/16 11:57:34;;;;;;;;;;;5.60;67.80;;;;;;5067160;27;86830;-48
2022/03/16 12:00:11;;;;;;;;;;;5.50;67.80;;;;;;5067153;27;88004;-50
2022/03/16 12:02:38;;;;;;;;;;;5.60;67.90;;;;;;5065834;27;89766;-48
2022/03/16 12:05:04;;;;;;;;;;;5.60;67.70;;;;;;5069915;27;87061;-49
2022/03/16 12:07:36;;;;;;;;;;;5.60;67.80;;;;;;5066500;27;87434;-48
2022/03/16 12:10:13;;;;;;;;;;;5.60;67.80;;;;;;5066854;27;86864;-48
2022/03/16 12:12:51;;;;;;;;;;;5.60;67.90;;;;;;5066814;27;87834;-52
2022/03/16 12:15:21;;;;;;;;;;;5.60;67.90;;;;;;5066427;27;87646;-49
2022/03/16 12:17:53;;;;;;;;;;;5.60;68.00;;;;;;5066418;27;86829;-48
2022/03/16 12:20:19;;;;;;;;;;;5.60;67.90;;;;;;5067180;27;87686;-48
2022/03/16 12:22:46;;;;;;;;;;;5.70;68.10;;;;;;5066344;27;87625;-48
2022/03/16 12:25:27;;;;;;;;;;;5.70;68.10;;;;;;5066581;27;86841;-48
2022/03/16 12:30:47;;;;;;;;;;;5.70;68.10;;;;;;5066831;27;86827;-48
2022/03/16 12:33:16;;;;;;;;;;;5.70;68.00;;;;;;5066629;27;87963;-49
2022/03/16 12:35:43;;;;;;;;;;;5.70;68.00;;;;;;5066127;27;87614;-50
2022/03/16 12:38:09;;;;;;;;;;;5.70;67.90;;;;;;5066490;27;86880;-48
2022/03/16 12:43:23;;;;;;;;;;;5.80;67.90;;;;;;5066311;27;87180;-48
2022/03/16 12:45:50;;;;;;;;;;;5.80;68.00;;;;;;5066656;27;86200;-48
2022/03/16 12:48:19;;;;;;;;;;;5.80;68.10;;;;;;5068960;27;86963;-50
2022/03/16 12:50:47;;;;;;;;;;;5.80;68.10;;;;;;5066683;27;86837;-52
2022/03/16 12:53:13;;;;;;;;;;;5.80;67.90;;;;;;5065637;27;87963;-48
2022/03/16 12:55:53;;;;;;;;;;;5.80;68.10;;;;;;5066118;27;88747;-48
2022/03/16 12:58:23;;;;;;;;;;;5.80;68.00;;;;;;5066263;27;87190;-48
2022/03/16 13:00:59;;;;;;;;;;;5.90;67.80;;;;;;5066185;27;88004;-49
2022/03/16 13:03:24;;;;;;;;;;;5.90;67.80;;;;;;5065904;27;88678;-49
2022/03/16 13:05:52;;;;;;;;;;;5.90;67.70;;;;;;5066543;27;87248;-48
2022/03/16 13:08:20;;;;;;;;;;;5.90;68.00;;;;;;5066470;27;86857;-50
2022/03/16 13:13:30;;;;;;;;;;;5.90;67.60;;;;;;5066385;27;86844;-48
2022/03/16 13:16:01;;;;;;;;;;;5.90;67.70;;;;;;5064743;27;86786;-51
2022/03/16 13:18:29;;;;;;;;;;;6.00;67.90;;;;;;5065352;27;87932;-49
2022/03/16 13:20:55;;;;;;;;;;;6.00;68.30;;;;;;5066286;27;87637;-48
2022/03/16 13:23:31;;;;;;;;;;;6.00;68.10;;;;;;5065571;27;87845;-49
2022/03/16 13:26:11;;;;;;;;;;;6.00;68.40;;;;;;5066053;27;86830;-48
2022/03/16 13:28:37;;;;;;;;;;;6.00;68.40;;;;;;5065791;27;87973;-49
2022/03/16 13:31:04;;;;;;;;;;;6.00;68.50;;;;;;5067110;27;88302;-48
2022/03/16 13:33:30;;;;;;;;;;;6.00;68.50;;;;;;5072210;27;86904;-48
2022/03/16 13:36:12;;;;;;;;;;;6.00;68.60;;;;;;5069459;27;87814;-48
2022/03/16 13:38:40;;;;;;;;;;;6.00;68.70;;;;;;5069131;27;87019;-49
2022/03/16 13:41:12;;;;;;;;;;;6.00;68.90;;;;;;5069408;27;86874;-48
2022/03/16 13:43:41;;;;;;;;;;;6.00;68.80;;;;;;5068360;27;88501;-49
2022/03/16 13:46:14;;;;;;;;;;;6.00;68.50;;;;;;5068986;27;86758;-48
2022/03/16 13:48:40;;;;;;;;;;;6.00;68.50;;;;;;5069124;27;87129;-49
2022/03/16 13:51:07;;;;;;;;;;;6.00;68.50;;;;;;5068754;27;87611;-48
2022/03/16 13:53:40;;;;;;;;;;;6.00;68.30;;;;;;5069186;27;86754;-50
2022/03/16 13:56:12;;;;;;;;;;;6.00;68.30;;;;;;5071594;27;87044;-48
2022/03/16 13:58:39;;;;;;;;;;;6.10;68.20;;;;;;5068864;27;86996;-50
2022/03/16 14:01:05;;;;;;;;;;;6.10;68.30;;;;;;5069458;27;86976;-48
2022/03/16 14:03:32;;;;;;;;;;;6.10;68.10;;;;;;5068456;27;88420;-47
2022/03/16 14:06:00;;;;;;;;;;;6.10;67.90;;;;;;5068774;27;87159;-48
2022/03/16 14:08:25;;;;;;;;;;;6.10;68.00;;;;;;5068199;27;87967;-49
2022/03/16 14:10:54;;;;;;;;;;;6.10;67.60;;;;;;5068592;27;87383;-48
2022/03/16 14:13:22;;;;;;;;;;;6.10;67.50;;;;;;5068267;27;86961;-49
2022/03/16 14:15:48;;;;;;;;;;;6.10;67.40;;;;;;5068608;27;88066;-49
2022/03/16 14:18:14;;;;;;;;;;;6.10;67.40;;;;;;5071414;27;87415;-50
2022/03/16 14:20:55;;;;;;;;;;;6.10;67.60;;;;;;5068732;27;87852;-48
2022/03/16 14:23:21;;;;;;;;;;;6.10;67.40;;;;;;5068074;27;88428;-48
2022/03/16 14:25:48;;;;;;;;;;;6.20;67.20;;;;;;5068992;27;86160;-48
2022/03/16 14:28:14;;;;;;;;;;;6.20;67.40;;;;;;5068446;27;87517;-48
2022/03/16 14:30:52;;;;;;;;;;;6.20;67.30;;;;;;5068167;27;88457;-49
2022/03/16 14:33:26;;;;;;;;;;;6.30;66.90;;;;;;5067621;27;88103;-48
2022/03/16 14:35:54;;;;;;;;;;;6.30;67.50;;;;;;5068643;27;87117;-48
2022/03/16 14:38:20;;;;;;;;;;;6.30;67.70;;;;;;5067931;27;88544;-52
2022/03/16 14:41:07;;;;;;;;;;;6.30;67.70;;;;;;5070848;27;86829;-48
2022/03/16 14:43:32;;;;;;;;;;;6.30;68.00;;;;;;5067905;27;87701;-48
2022/03/16 14:45:58;;;;;;;;;;;6.20;68.00;;;;;;5068198;27;86842;-48
2022/03/16 14:48:24;;;;;;;;;;;6.20;68.30;;;;;;5068081;27;87847;-48
2022/03/16 14:50:51;;;;;;;;;;;6.20;68.30;;;;;;5068283;27;87696;-48
2022/03/16 14:53:17;;;;;;;;;;;6.10;68.20;;;;;;5067630;27;86841;-48
2022/03/16 14:55:43;;;;;;;;;;;6.20;68.60;;;;;;5068327;27;86850;-48
2022/03/16 14:58:09;;;;;;;;;;;6.20;68.30;;;;;;5066756;27;89428;-48
2022/03/16 15:00:38;;;;;;;;;;;6.20;68.20;;;;;;5071146;27;87017;-48
2022/03/16 15:03:04;;;;;;;;;;;6.30;68.20;;;;;;5067267;27;88468;-49
2022/03/16 15:05:29;;;;;;;;;;;6.30;68.00;;;;;;5067890;27;87109;-48
2022/03/16 15:07:55;;;;;;;;;;;6.30;67.90;;;;;;5067851;27;88108;-52
2022/03/16 15:10:20;;;;;;;;;;;6.40;67.80;;;;;;5067403;27;88514;-51
2022/03/16 15:12:46;;;;;;;;;;;6.30;67.70;;;;;;5067979;27;87048;-49
2022/03/16 15:15:12;;;;;;;;;;;6.30;67.40;;;;;;5068485;27;86260;-48
2022/03/16 15:17:38;;;;;;;;;;;6.40;67.30;;;;;;5067303;27;88422;-48
2022/03/16 15:20:05;;;;;;;;;;;6.40;67.70;;;;;;5067808;27;87095;-49
2022/03/16 15:22:31;;;;;;;;;;;6.40;67.10;;;;;;5069623;27;87878;-51
2022/03/16 15:24:56;;;;;;;;;;;6.40;67.00;;;;;;5067512;27;86838;-49
2022/03/16 15:27:22;;;;;;;;;;;6.40;66.90;;;;;;5067630;27;87135;-49
2022/03/16 15:29:49;;;;;;;;;;;6.40;66.80;;;;;;5066603;27;87578;-52
2022/03/16 15:32:16;;;;;;;;;;;6.40;67.20;;;;;;5067508;27;86889;-50
2022/03/16 15:34:43;;;;;;;;;;;6.50;66.90;;;;;;5067431;27;89793;-50
2022/03/16 15:37:09;;;;;;;;;;;6.50;66.80;;;;;;5067364;27;87115;-48
2022/03/16 15:39:36;;;;;;;;;;;6.50;66.80;;;;;;5067882;27;86240;-48
2022/03/16 15:44:47;;;;;;;;;;;6.50;67.20;;;;;;5067706;27;86952;-48
2022/03/16 15:47:13;;;;;;;;;;;6.50;67.60;;;;;;5066695;27;88223;-48
2022/03/16 15:49:39;;;;;;;;;;;6.50;67.60;;;;;;5066845;27;87795;-48
2022/03/16 15:52:05;;;;;;;;;;;6.50;67.50;;;;;;5067128;27;86931;-48
2022/03/16 15:54:32;;;;;;;;;;;6.50;67.60;;;;;;5066476;27;86842;-48
2022/03/16 15:56:59;;;;;;;;;;;6.50;67.50;;;;;;5066551;27;88539;-48
2022/03/16 15:59:25;;;;;;;;;;;6.40;67.60;;;;;;5066985;27;86915;-48
2022/03/16 16:01:50;;;;;;;;;;;6.40;67.50;;;;;;5067028;27;87950;-48
2022/03/16 16:04:16;;;;;;;;;;;6.40;67.70;;;;;;5067046;27;87866;-48
2022/03/16 16:06:46;;;;;;;;;;;6.50;67.60;;;;;;5069970;27;86759;-48
2022/03/16 16:09:17;;;;;;;;;;;6.50;67.00;;;;;;5066509;27;88562;-48
2022/03/16 16:11:44;;;;;;;;;;;6.50;67.50;;;;;;5066233;27;87868;-48
2022/03/16 16:14:11;;;;;;;;;;;6.50;67.10;;;;;;5067145;27;86864;-51
2022/03/16 16:16:40;;;;;;;;;;;6.50;67.50;;;;;;5066495;27;88592;-48
2022/03/16 16:19:05;;;;;;;;;;;6.50;67.80;;;;;;5067034;27;86849;-48
2022/03/16 16:21:33;;;;;;;;;;;6.50;67.80;;;;;;5066911;27;87913;-48
2022/03/16 16:24:00;;;;;;;;;;;6.50;67.90;;;;;;5066306;27;87900;-48
2022/03/16 16:26:26;;;;;;;;;;;6.50;67.80;;;;;;5066644;27;86971;-48
2022/03/16 16:28:53;;;;;;;;;;;6.50;67.90;;;;;;5069670;27;87852;-48
2022/03/16 16:31:19;;;;;;;;;;;6.50;68.00;;;;;;5066554;27;86842;-48
2022/03/16 16:33:45;;;;;;;;;;;6.50;67.90;;;;;;5066749;27;86932;-48
2022/03/16 16:36:17;;;;;;;;;;;6.60;68.10;;;;;;5065414;27;89501;-48
2022/03/16 16:38:42;;;;;;;;;;;6.60;68.20;;;;;;5066388;27;86894;-49
2022/03/16 16:41:08;;;;;;;;;;;6.50;68.20;;;;;;5066535;27;87910;-48
2022/03/16 16:43:35;;;;;;;;;;;6.60;68.20;;;;;;5066162;27;88700;-48
2022/03/16 16:46:02;;;;;;;;;;;6.50;68.20;;;;;;5066038;27;86921;-50
2022/03/16 16:48:28;;;;;;;;;;;6.50;68.20;;;;;;5068965;27;87037;-48
2022/03/16 16:50:59;;;;;;;;;;;6.60;68.30;;;;;;5066653;27;86853;-48
2022/03/16 16:53:27;;;;;;;;;;;6.50;68.20;;;;;;5066718;27;87972;-48
2022/03/16 16:55:53;;;;;;;;;;;6.60;68.50;;;;;;5065811;27;88679;-48
2022/03/16 16:58:20;;;;;;;;;;;6.50;68.60;;;;;;5066394;27;86848;-49
2022/03/16 17:00:46;;;;;;;;;;;6.60;68.60;;;;;;5065997;27;87739;-48
2022/03/16 17:03:12;;;;;;;;;;;6.60;68.60;;;;;;5065972;27;87566;-48
2022/03/16 17:05:41;;;;;;;;;;;6.60;68.60;;;;;;5068714;27;86981;-49
2022/03/16 17:08:09;;;;;;;;;;;6.60;68.70;;;;;;5069822;27;87977;-48
2022/03/16 17:10:36;;;;;;;;;;;6.60;68.70;;;;;;5072211;27;88511;-48
2022/03/16 17:13:02;;;;;;;;;;;6.60;68.70;;;;;;5069683;27;87918;-48
2022/03/16 17:15:28;;;;;;;;;;;6.60;68.80;;;;;;5069226;27;88824;-48
2022/03/16 17:17:55;;;;;;;;;;;6.60;68.80;;;;;;5070056;27;86086;-48
2022/03/16 17:20:23;;;;;;;;;;;6.60;68.80;;;;;;5069567;27;87296;-48
2022/03/16 17:22:51;;;;;;;;;;;6.60;68.80;;;;;;5069434;27;87412;-48
2022/03/16 17:25:21;;;;;;;;;;;6.60;68.80;;;;;;5068828;27;88256;-48
2022/03/16 17:27:47;;;;;;;;;;;6.60;68.80;;;;;;5069433;27;88619;-48
2022/03/16 17:30:14;;;;;;;;;;;6.60;68.70;;;;;;5068976;27;88286;-48
2022/03/16 17:32:44;;;;;;;;;;;6.70;68.80;;;;;;5072233;27;86847;-48
2022/03/16 17:35:10;;;;;;;;;;;6.60;68.70;;;;;;5068848;27;88421;-48
2022/03/16 17:37:38;;;;;;;;;;;6.70;68.80;;;;;;5069281;27;86872;-48
2022/03/16 17:40:06;;;;;;;;;;;6.60;68.70;;;;;;5069270;27;87015;-48
2022/03/16 17:45:31;;;;;;;;;;;6.60;69.30;;;;;;5069145;27;86945;-52
2022/03/16 17:48:01;;;;;;;;;;;6.70;68.70;;;;;;5069546;27;86968;-48
2022/03/16 17:50:27;;;;;;;;;;;6.70;68.60;;;;;;5068077;27;89388;-49
2022/03/16 17:52:53;;;;;;;;;;;6.70;68.70;;;;;;5068975;27;86946;-52
2022/03/16 17:58:03;;;;;;;;;;;6.70;68.70;;;;;;5065950;27;86912;-48
2022/03/16 18:00:30;;;;;;;;;;;6.70;68.70;;;;;;5068938;27;87852;-48
2022/03/16 18:02:55;;;;;;;;;;;6.70;68.60;;;;;;5068524;27;88714;-52
2022/03/16 18:05:21;;;;;;;;;;;6.70;68.60;;;;;;5068921;27;86832;-49
2022/03/16 18:07:46;;;;;;;;;;;6.70;68.60;;;;;;5069507;27;87861;-49
2022/03/16 18:12:59;;;;;;;;;;;6.70;68.80;;;;;;5069046;27;86984;-49
2022/03/16 18:15:25;;;;;;;;;;;6.70;68.80;;;;;;5068356;27;87825;-48
2022/03/16 18:17:51;;;;;;;;;;;6.70;68.90;;;;;;5070561;27;88012;-48
2022/03/16 18:20:16;;;;;;;;;;;6.70;68.80;;;;;;5068909;27;86790;-48
2022/03/16 18:22:42;;;;;;;;;;;6.70;69.50;;;;;;5068528;27;87351;-48
2022/03/16 18:25:08;;;;;;;;;;;6.70;68.90;;;;;;5068938;27;86910;-48
2022/03/16 18:27:37;;;;;;;;;;;6.70;68.90;;;;;;5068511;27;87839;-48
2022/03/16 18:30:04;;;;;;;;;;;6.80;68.90;;;;;;5068183;27;88625;-48
2022/03/16 18:32:30;;;;;;;;;;;6.80;68.80;;;;;;5068836;27;86060;-48
2022/03/16 18:34:57;;;;;;;;;;;6.80;68.80;;;;;;5068409;27;87211;-48
2022/03/16 18:37:23;;;;;;;;;;;6.70;68.80;;;;;;5067963;27;87715;-49
2022/03/16 18:39:52;;;;;;;;;;;6.80;68.80;;;;;;5070934;27;87796;-49
2022/03/16 18:42:21;;;;;;;;;;;6.80;68.80;;;;;;5067915;27;88499;-48
2022/03/16 18:44:47;;;;;;;;;;;6.70;68.80;;;;;;5068175;27;86962;-48
2022/03/16 18:47:13;;;;;;;;;;;6.80;68.80;;;;;;5068264;27;87281;-48
2022/03/16 18:49:39;;;;;;;;;;;6.80;68.80;;;;;;5068122;27;86982;-48
2022/03/16 18:54:37;;;;;;;;;;;6.80;68.90;;;;;;5064956;27;86702;-48
2022/03/16 18:57:07;;;;;;;;;;;6.80;68.80;;;;;;5068114;27;87772;-49
2022/03/16 18:59:33;;;;;;;;;;;6.80;68.80;;;;;;5071286;27;86880;-48
2022/03/16 19:02:00;;;;;;;;;;;6.80;68.80;;;;;;5067589;27;88530;-49
2022/03/16 19:04:27;;;;;;;;;;;6.80;68.80;;;;;;5066534;27;88089;-48
2022/03/16 19:06:53;;;;;;;;;;;6.80;68.80;;;;;;5067801;27;88732;-48
2022/03/16 19:09:22;;;;;;;;;;;6.80;68.80;;;;;;5067424;27;88395;-49
2022/03/16 19:14:36;;;;;;;;;;;6.80;68.80;;;;;;5064722;27;87046;-48
2022/03/16 19:17:02;;;;;;;;;;;6.80;68.80;;;;;;5067725;27;86969;-49
2022/03/16 19:19:28;;;;;;;;;;;6.80;68.80;;;;;;5066940;27;86999;-50
2022/03/16 19:21:55;;;;;;;;;;;6.80;68.80;;;;;;5070664;27;87170;-48
2022/03/16 19:24:20;;;;;;;;;;;6.80;68.90;;;;;;5067620;27;86897;-51
2022/03/16 19:26:49;;;;;;;;;;;6.80;68.80;;;;;;5068046;27;86860;-49
2022/03/16 19:29:15;;;;;;;;;;;6.80;68.80;;;;;;5065170;27;89514;-53
2022/03/16 19:31:40;;;;;;;;;;;6.80;68.80;;;;;;5067876;27;86808;-48
2022/03/16 19:34:07;;;;;;;;;;;6.80;68.80;;;;;;5067464;27;87848;-49
2022/03/16 19:36:33;;;;;;;;;;;6.80;68.80;;;;;;5066962;27;88442;-49
2022/03/16 19:39:02;;;;;;;;;;;6.80;68.90;;;;;;5067340;27;87026;-49
2022/03/16 19:41:28;;;;;;;;;;;6.80;68.90;;;;;;5067445;27;87893;-49
2022/03/16 19:43:55;;;;;;;;;;;6.80;68.80;;;;;;5069735;27;87519;-48
2022/03/16 19:46:21;;;;;;;;;;;6.80;68.90;;;;;;5067702;27;87982;-50
2022/03/16 19:48:46;;;;;;;;;;;6.80;68.90;;;;;;5066882;27;88693;-52
2022/03/16 19:51:13;;;;;;;;;;;6.80;68.90;;;;;;5067260;27;86833;-49
2022/03/16 19:53:40;;;;;;;;;;;6.80;68.80;;;;;;5066390;27;87973;-49
2022/03/16 19:56:06;;;;;;;;;;;6.80;68.80;;;;;;5066885;27;87657;-49
2022/03/16 19:58:32;;;;;;;;;;;6.80;68.90;;;;;;5067527;27;87012;-49
2022/03/16 20:00:58;;;;;;;;;;;6.80;68.90;;;;;;5067125;27;87984;-49
2022/03/16 20:03:24;;;;;;;;;;;6.80;68.90;;;;;;5066531;27;87689;-49
2022/03/16 20:05:50;;;;;;;;;;;6.80;68.90;;;;;;5070081;27;86852;-48
2022/03/16 20:08:16;;;;;;;;;;;6.80;68.90;;;;;;5066256;27;86808;-53
2022/03/16 20:10:42;;;;;;;;;;;6.80;68.90;;;;;;5067500;27;86198;-49
2022/03/16 20:13:10;;;;;;;;;;;6.80;68.90;;;;;;5067067;27;86869;-51
2022/03/16 20:15:36;;;;;;;;;;;6.70;68.80;;;;;;5066534;27;88514;-49
2022/03/16 20:18:03;;;;;;;;;;;6.80;68.90;;;;;;5066257;27;87729;-49
2022/03/16 20:20:29;;;;;;;;;;;6.70;68.80;;;;;;5066804;27;88732;-52
2022/03/16 20:22:54;;;;;;;;;;;6.80;69.00;;;;;;5066379;27;88525;-52
2022/03/16 20:25:21;;;;;;;;;;;6.80;68.90;;;;;;5066737;27;86954;-52
2022/03/16 20:27:48;;;;;;;;;;;6.80;68.90;;;;;;5069257;27;87812;-48
2022/03/16 20:30:14;;;;;;;;;;;6.70;68.90;;;;;;5066673;27;87025;-50
2022/03/16 20:32:40;;;;;;;;;;;6.80;69.00;;;;;;5066752;27;87909;-51
2022/03/16 20:35:06;;;;;;;;;;;6.80;69.00;;;;;;5066678;27;87697;-50
2022/03/16 20:37:32;;;;;;;;;;;6.70;68.90;;;;;;5066512;27;86935;-50
2022/03/16 20:39:57;;;;;;;;;;;6.70;68.80;;;;;;5068291;27;87074;-49
2022/03/16 20:42:23;;;;;;;;;;;6.70;68.80;;;;;;5069135;27;89751;-52
2022/03/16 20:44:49;;;;;;;;;;;6.80;68.90;;;;;;5069885;27;86932;-49
2022/03/16 20:47:15;;;;;;;;;;;6.70;68.90;;;;;;5070135;27;87913;-49
2022/03/16 20:49:40;;;;;;;;;;;6.80;68.90;;;;;;5073025;27;86839;-49
2022/03/16 20:52:10;;;;;;;;;;;6.80;68.90;;;;;;5070351;27;86865;-56
2022/03/16 20:54:36;;;;;;;;;;;6.70;69.50;;;;;;5069508;27;88592;-50
2022/03/16 20:57:02;;;;;;;;;;;6.70;68.90;;;;;;5070251;27;86897;-49
2022/03/16 21:02:15;;;;;;;;;;;6.80;69.00;;;;;;5069871;27;87106;-49